createdAt,value
2018-04-16T00:01:51.143Z,25.23
2018-04-16T00:04:18.841Z,22.97
2018-04-16T00:06:46.426Z,25.00
2018-04-16T00:09:14.031Z,25.10
2018-04-16T00:11:41.653Z,24.10
2018-04-16T00:14:09.246Z,22.93
2018-04-16T00:16:37.638Z,24.10
2018-04-16T00:19:05.226Z,22.90
2018-04-16T00:21:32.849Z,20.40
2018-04-16T00:24:00.439Z,20.77
2018-04-16T00:26:28.057Z,20.40
2018-04-16T00:28:56.422Z,22.47
2018-04-16T00:31:24.043Z,22.37
2018-04-16T00:33:57.412Z,24.10
2018-04-16T00:36:30.734Z,20.47
2018-04-16T00:39:04.040Z,22.93
2018-04-16T00:41:37.335Z,24.20
2018-04-16T00:44:10.494Z,15.20
2018-04-16T00:46:43.717Z,24.03
2018-04-16T00:49:17.025Z,23.07
2018-04-16T00:51:50.358Z,27.17
2018-04-16T00:54:24.414Z,22.47
2018-04-16T00:56:57.878Z,22.87
2018-04-16T00:59:31.101Z,19.27
2018-04-16T01:02:04.321Z,21.17
2018-04-16T01:04:37.698Z,24.10
2018-04-16T01:07:10.830Z,24.03
2018-04-16T01:09:44.982Z,23.60
2018-04-16T01:12:18.178Z,23.50
2018-04-16T01:14:51.491Z,24.73
2018-04-16T01:17:24.779Z,26.47
2018-04-16T01:19:58.056Z,24.63
2018-04-16T01:22:31.401Z,22.93
2018-04-16T01:25:04.633Z,23.57
2018-04-16T01:27:38.086Z,25.77
2018-04-16T01:30:11.274Z,25.33
2018-04-16T01:32:44.545Z,25.00
2018-04-16T01:35:17.763Z,19.80
2018-04-16T01:37:51.188Z,21.50
2018-04-16T01:40:24.546Z,22.70
2018-04-16T01:42:57.876Z,23.10
2018-04-16T01:45:31.110Z,22.00
2018-04-16T01:48:04.358Z,21.07
2018-04-16T01:50:38.490Z,21.93
2018-04-16T01:53:11.742Z,19.43
2018-04-16T01:55:45.037Z,23.30
2018-04-16T01:58:18.429Z,21.93
2018-04-16T02:00:51.786Z,23.00
2018-04-16T02:03:25.238Z,23.00
2018-04-16T02:05:59.226Z,21.60
2018-04-16T02:08:32.630Z,12.40
2018-04-16T02:11:07.362Z,17.63
2018-04-16T02:13:40.768Z,15.60
2018-04-16T02:16:14.726Z,13.23
2018-04-16T02:18:48.128Z,12.13
2018-04-16T02:21:21.394Z,13.17
2018-04-16T02:23:54.734Z,17.03
2018-04-16T02:26:28.143Z,16.50
2018-04-16T02:29:02.299Z,19.53
2018-04-16T02:34:40.382Z,19.70
2018-04-16T02:37:13.734Z,19.27
2018-04-16T02:40:01.107Z,19.23
2018-04-16T02:42:34.271Z,19.47
2018-04-16T02:45:07.518Z,18.63
2018-04-16T02:47:41.606Z,20.87
2018-04-16T02:50:15.007Z,19.70
2018-04-16T02:52:48.311Z,21.70
2018-04-16T02:55:22.415Z,20.40
2018-04-16T02:57:56.480Z,20.07
2018-04-16T03:00:29.888Z,20.13
2018-04-16T03:03:03.092Z,21.77
2018-04-16T03:05:36.386Z,22.73
2018-04-16T03:08:09.775Z,22.73
2018-04-16T03:10:43.242Z,20.63
2018-04-16T03:13:16.611Z,17.83
2018-04-16T03:18:49.595Z,20.23
2018-04-16T03:21:23.034Z,18.00
2018-04-16T03:23:56.254Z,19.30
2018-04-16T03:26:29.523Z,19.60
2018-04-16T03:29:02.850Z,19.07
2018-04-16T03:31:36.107Z,21.33
2018-04-16T03:34:09.452Z,20.10
2018-04-16T03:36:42.727Z,19.63
2018-04-16T03:39:15.970Z,17.70
2018-04-16T03:41:50.001Z,16.97
2018-04-16T03:44:23.248Z,16.77
2018-04-16T03:46:56.641Z,16.93
2018-04-16T03:49:29.840Z,17.47
2018-04-16T03:52:14.178Z,18.90
2018-04-16T03:54:41.777Z,10.40
2018-04-16T03:57:10.158Z,12.70
2018-04-16T03:59:38.523Z,16.87
2018-04-16T04:02:06.157Z,18.67
2018-04-16T04:04:33.756Z,19.67
2018-04-16T04:07:02.113Z,10.63
2018-04-16T04:09:29.744Z,12.80
2018-04-16T04:11:57.337Z,20.00
2018-04-16T04:14:24.965Z,18.00
2018-04-16T04:16:52.559Z,13.17
2018-04-16T04:19:20.182Z,12.70
2018-04-16T04:21:47.777Z,13.50
2018-04-16T04:24:27.506Z,13.87
2018-04-16T04:27:06.958Z,18.93
2018-04-16T04:29:46.402Z,21.30
2018-04-16T04:32:13.995Z,19.03
2018-04-16T04:34:41.620Z,18.40
2018-04-16T04:37:09.214Z,17.67
2018-04-16T04:39:36.839Z,19.90
2018-04-16T04:42:04.430Z,20.00
2018-04-16T04:44:32.787Z,19.80
2018-04-16T04:47:00.407Z,19.60
2018-04-16T04:49:27.998Z,18.63
2018-04-16T04:51:57.133Z,17.70
2018-04-16T04:54:24.743Z,19.03
2018-04-16T04:56:52.357Z,18.27
2018-04-16T04:59:19.997Z,18.87
2018-04-16T05:01:48.383Z,18.50
2018-04-16T05:04:16.736Z,19.37
2018-04-16T05:06:44.358Z,17.73
2018-04-16T05:09:11.951Z,17.77
2018-04-16T05:11:39.578Z,18.90
2018-04-16T05:14:07.178Z,18.30
2018-04-16T05:16:34.795Z,17.63
2018-04-16T05:19:02.391Z,19.60
2018-04-16T05:21:30.026Z,19.13
2018-04-16T05:23:57.628Z,18.83
2018-04-16T05:26:26.016Z,20.70
2018-04-16T05:28:54.388Z,20.90
2018-04-16T05:31:22.009Z,21.03
2018-04-16T05:33:49.614Z,19.53
2018-04-16T05:36:18.009Z,20.27
2018-04-16T05:38:46.372Z,20.57
2018-04-16T05:41:14.771Z,22.73
2018-04-16T05:43:42.364Z,25.07
2018-04-16T05:46:09.995Z,23.20
2018-04-16T05:48:37.602Z,25.43
2018-04-16T05:51:05.218Z,23.13
2018-04-16T05:53:32.819Z,24.17
2018-04-16T05:56:00.410Z,24.87
2018-04-16T05:58:28.034Z,26.03
2018-04-16T06:00:55.630Z,23.50
2018-04-16T06:03:23.242Z,23.87
2018-04-16T06:05:50.835Z,24.87
2018-04-16T06:08:18.454Z,24.00
2018-04-16T06:10:46.059Z,22.80
2018-04-16T06:13:13.682Z,24.20
2018-04-16T06:15:41.286Z,25.70
2018-04-16T06:18:08.905Z,25.00
2018-04-16T06:20:36.502Z,25.50
2018-04-16T06:23:04.126Z,27.20
2018-04-16T06:25:31.723Z,21.57
2018-04-16T06:27:59.347Z,23.30
2018-04-16T06:30:26.942Z,25.83
2018-04-16T06:32:54.570Z,22.33
2018-04-16T06:35:22.164Z,27.40
2018-04-16T06:37:49.786Z,27.37
2018-04-16T06:40:17.386Z,26.37
2018-04-16T06:42:45.014Z,31.33
2018-04-16T06:45:12.600Z,28.10
2018-04-16T06:47:40.244Z,27.20
2018-04-16T06:50:07.850Z,24.67
2018-04-16T06:52:35.469Z,28.87
2018-04-16T06:55:03.085Z,24.10
2018-04-16T06:57:30.705Z,30.57
2018-04-16T06:59:58.296Z,19.27
2018-04-16T07:02:26.723Z,30.10
2018-04-16T07:04:54.425Z,27.23
2018-04-16T07:07:22.026Z,24.20
2018-04-16T07:09:49.642Z,24.57
2018-04-16T07:12:17.250Z,20.60
2018-04-16T07:14:44.881Z,20.23
2018-04-16T07:17:13.253Z,18.80
2018-04-16T07:19:41.654Z,25.73
2018-04-16T07:22:10.078Z,25.00
2018-04-16T07:24:37.702Z,23.23
2018-04-16T07:27:05.309Z,25.50
2018-04-16T07:29:35.706Z,25.93
2018-04-16T07:32:04.241Z,27.07
2018-04-16T07:34:31.871Z,20.47
2018-04-16T07:36:59.474Z,15.83
2018-04-16T07:39:27.884Z,27.83
2018-04-16T07:41:55.488Z,24.77
2018-04-16T07:44:23.095Z,23.30
2018-04-16T07:46:50.718Z,22.83
2018-04-16T07:49:18.315Z,18.70
2018-04-16T07:51:45.946Z,18.10
2018-04-16T07:54:13.550Z,19.63
2018-04-16T07:56:41.183Z,17.37
2018-04-16T07:59:09.574Z,24.20
2018-04-16T08:01:37.198Z,15.40
2018-04-16T08:04:04.801Z,21.57
2018-04-16T08:06:32.519Z,16.90
2018-04-16T08:09:00.153Z,24.17
2018-04-16T08:11:27.766Z,22.90
2018-04-16T08:13:56.129Z,23.90
2018-04-16T08:16:23.753Z,21.30
2018-04-16T08:18:51.344Z,19.50
2018-04-16T08:21:18.973Z,23.37
2018-04-16T08:23:46.564Z,23.70
2018-04-16T08:26:14.182Z,19.20
2018-04-16T08:28:41.778Z,19.03
2018-04-16T08:31:09.399Z,23.20
2018-04-16T08:33:36.995Z,24.00
2018-04-16T08:36:04.606Z,15.53
2018-04-16T08:38:32.210Z,13.87
2018-04-16T08:40:59.900Z,22.50
2018-04-16T08:43:27.495Z,22.10
2018-04-16T08:45:55.092Z,16.27
2018-04-16T08:48:22.710Z,23.87
2018-04-16T08:50:50.306Z,23.40
2018-04-16T08:53:17.931Z,21.90
2018-04-16T08:55:45.530Z,22.10
2018-04-16T08:58:13.154Z,22.27
2018-04-16T09:00:40.784Z,23.43
2018-04-16T09:03:08.398Z,17.80
2018-04-16T09:05:35.999Z,20.70
2018-04-16T09:08:03.619Z,20.90
2018-04-16T09:10:31.226Z,22.40
2018-04-16T09:12:58.841Z,22.17
2018-04-16T09:15:26.430Z,23.17
2018-04-16T09:17:54.050Z,20.60
2018-04-16T09:20:21.644Z,21.00
2018-04-16T09:22:49.273Z,19.13
2018-04-16T09:25:16.865Z,21.30
2018-04-16T09:27:44.490Z,22.53
2018-04-16T09:30:12.086Z,24.00
2018-04-16T09:32:39.809Z,21.07
2018-04-16T09:35:07.554Z,20.50
2018-04-16T09:37:35.981Z,21.00
2018-04-16T09:40:03.633Z,22.10
2018-04-16T09:42:31.268Z,17.00
2018-04-16T09:44:59.662Z,17.93
2018-04-16T09:47:27.262Z,12.83
2018-04-16T09:49:54.892Z,19.20
2018-04-16T09:52:22.543Z,22.43
2018-04-16T09:54:50.190Z,11.57
2018-04-16T09:57:19.051Z,19.93
2018-04-16T09:59:46.674Z,20.40
2018-04-16T10:02:20.002Z,20.00
2018-04-16T10:04:47.624Z,20.60
2018-04-16T10:07:15.218Z,16.53
2018-04-16T10:09:44.766Z,19.00
2018-04-16T10:12:13.214Z,22.57
2018-04-16T10:14:40.843Z,12.10
2018-04-16T10:17:08.450Z,21.20
2018-04-16T10:19:36.061Z,15.37
2018-04-16T10:22:03.652Z,17.67
2018-04-16T10:24:31.288Z,20.93
2018-04-16T10:26:58.887Z,17.37
2018-04-16T10:29:27.278Z,14.97
2018-04-16T10:31:55.637Z,14.83
2018-04-16T10:34:23.250Z,20.40
2018-04-16T10:36:50.839Z,17.90
2018-04-16T10:39:18.461Z,20.57
2018-04-16T10:41:46.064Z,19.87
2018-04-16T10:44:13.693Z,19.07
2018-04-16T10:46:41.299Z,17.80
2018-04-16T10:49:09.703Z,18.47
2018-04-16T10:51:38.076Z,20.00
2018-04-16T10:54:06.467Z,18.90
2018-04-16T10:56:34.073Z,18.23
2018-04-16T10:59:01.737Z,19.20
2018-04-16T11:01:29.367Z,19.40
2018-04-16T11:03:56.958Z,19.10
2018-04-16T11:06:24.580Z,16.30
2018-04-16T11:08:52.180Z,13.20
2018-04-16T11:11:20.049Z,10.23
2018-04-16T11:13:47.642Z,11.07
2018-04-16T11:16:15.261Z,10.43
2018-04-16T11:18:42.858Z,14.70
2018-04-16T11:21:11.983Z,15.87
2018-04-16T11:23:40.341Z,16.97
2018-04-16T11:26:07.961Z,7.83
2018-04-16T11:28:35.550Z,15.73
2018-04-16T11:31:03.178Z,12.03
2018-04-16T11:33:30.795Z,8.67
2018-04-16T11:35:59.198Z,15.73
2018-04-16T11:38:26.794Z,14.93
2018-04-16T11:40:54.384Z,15.60
2018-04-16T11:43:22.042Z,17.23
2018-04-16T11:45:50.399Z,11.40
2018-04-16T11:48:18.049Z,11.20
2018-04-16T11:50:45.642Z,15.70
2018-04-16T11:53:13.270Z,14.70
2018-04-16T11:55:40.862Z,11.47
2018-04-16T11:58:09.246Z,17.60
2018-04-16T12:00:37.610Z,16.87
2018-04-16T12:03:05.242Z,15.13
2018-04-16T12:05:32.832Z,15.23
2018-04-16T12:08:00.459Z,14.50
2018-04-16T12:10:28.128Z,14.33
2018-04-16T12:12:55.750Z,14.03
2018-04-16T12:15:23.347Z,14.10
2018-04-16T12:17:50.982Z,14.90
2018-04-16T12:20:18.587Z,14.67
2018-04-16T12:22:46.214Z,11.70
2018-04-16T12:25:13.810Z,11.60
2018-04-16T12:27:41.477Z,11.33
2018-04-16T12:30:09.075Z,14.03
2018-04-16T12:32:37.461Z,12.50
2018-04-16T12:35:05.261Z,6.80
2018-04-16T12:37:32.887Z,6.67
2018-04-16T12:40:00.479Z,9.80
2018-04-16T12:42:28.077Z,6.17
2018-04-16T12:44:55.704Z,11.27
2018-04-16T12:47:23.306Z,10.67
2018-04-16T12:49:51.686Z,14.07
2018-04-16T12:52:20.059Z,15.40
2018-04-16T12:54:47.700Z,8.10
2018-04-16T12:57:17.785Z,9.07
2018-04-16T12:59:45.431Z,13.93
2018-04-16T13:02:13.031Z,15.20
2018-04-16T13:04:40.670Z,14.00
2018-04-16T13:07:08.343Z,13.73
2018-04-16T13:09:35.963Z,14.60
2018-04-16T13:12:04.338Z,15.33
2018-04-16T13:14:32.730Z,12.83
2018-04-16T13:17:00.323Z,12.77
2018-04-16T13:19:27.947Z,15.17
2018-04-16T13:21:56.475Z,13.87
2018-04-16T13:24:24.896Z,14.00
2018-04-16T13:26:53.254Z,7.13
2018-04-16T13:29:20.878Z,12.80
2018-04-16T13:31:48.473Z,14.63
2018-04-16T13:34:16.887Z,6.90
2018-04-16T13:36:46.619Z,12.53
2018-04-16T13:39:14.358Z,11.20
2018-04-16T13:41:42.746Z,16.00
2018-04-16T13:44:10.377Z,14.97
2018-04-16T13:46:37.968Z,16.60
2018-04-16T13:49:05.594Z,18.20
2018-04-16T13:51:33.211Z,12.57
2018-04-16T13:54:00.798Z,11.13
2018-04-16T13:56:28.418Z,16.30
2018-04-16T13:58:56.019Z,15.83
2018-04-16T14:01:23.637Z,15.70
2018-04-16T14:03:51.229Z,15.83
2018-04-16T14:06:18.852Z,15.50
2018-04-16T14:08:46.471Z,14.83
2018-04-16T14:11:14.106Z,14.20
2018-04-16T14:13:41.754Z,14.13
2018-04-16T14:16:09.398Z,14.10
2018-04-16T14:18:36.996Z,12.87
2018-04-16T14:21:04.662Z,15.40
2018-04-16T14:23:32.266Z,13.90
2018-04-16T14:26:00.653Z,12.90
2018-04-16T14:28:29.015Z,14.30
2018-04-16T14:30:56.655Z,13.53
2018-04-16T14:33:24.250Z,12.67
2018-04-16T14:35:52.619Z,12.47
2018-04-16T14:38:21.015Z,12.80
2018-04-16T14:40:48.614Z,14.10
2018-04-16T14:43:16.229Z,10.80
2018-04-16T14:45:44.590Z,13.10
2018-04-16T14:48:12.208Z,13.97
2018-04-16T14:50:39.814Z,12.20
2018-04-16T14:53:07.451Z,13.70
2018-04-16T14:55:35.048Z,12.10
2018-04-16T14:58:03.404Z,13.30
2018-04-16T15:00:31.030Z,9.50
2018-04-16T15:02:59.000Z,6.93
2018-04-16T15:05:26.627Z,6.70
2018-04-16T15:07:54.214Z,6.90
2018-04-16T15:10:21.810Z,7.63
2018-04-16T15:12:49.427Z,7.50
2018-04-16T15:15:17.013Z,6.60
2018-04-16T15:17:44.649Z,7.83
2018-04-16T15:20:12.243Z,11.10
2018-04-16T15:22:39.874Z,11.43
2018-04-16T15:25:07.461Z,9.23
2018-04-16T15:27:35.061Z,10.97
2018-04-16T15:30:03.452Z,12.30
2018-04-16T15:32:31.042Z,11.80
2018-04-16T15:34:58.671Z,13.87
2018-04-16T15:37:27.026Z,13.87
2018-04-16T15:39:55.417Z,13.90
2018-04-16T15:42:23.776Z,14.60
2018-04-16T15:44:51.401Z,14.53
2018-04-16T15:47:18.995Z,17.37
2018-04-16T15:49:48.572Z,17.30
2018-04-16T15:52:16.182Z,16.57
2018-04-16T15:54:44.574Z,9.97
2018-04-16T15:57:13.247Z,15.13
2018-04-16T15:59:41.610Z,16.70
2018-04-16T16:02:09.235Z,14.30
2018-04-16T16:04:36.836Z,14.23
2018-04-16T16:07:05.361Z,16.73
2018-04-16T16:09:32.958Z,15.40
2018-04-16T16:12:00.594Z,16.53
2018-04-16T16:14:28.188Z,14.57
2018-04-16T16:16:56.801Z,17.07
2018-04-16T16:19:24.415Z,18.00
2018-04-16T16:21:52.254Z,16.60
2018-04-16T16:24:20.151Z,17.77
2018-04-16T16:26:47.915Z,15.90
2018-04-16T16:29:15.791Z,16.50
2018-04-16T16:31:43.548Z,18.90
2018-04-16T16:34:11.139Z,17.03
2018-04-16T16:36:38.766Z,18.60
2018-04-16T16:39:06.521Z,20.30
2018-04-16T16:41:34.143Z,19.47
2018-04-16T16:44:02.786Z,19.60
2018-04-16T16:46:30.670Z,20.37
2018-04-16T16:48:59.330Z,21.33
2018-04-16T16:51:27.212Z,20.97
2018-04-16T16:53:54.817Z,21.17
2018-04-16T16:56:22.524Z,20.60
2018-04-16T16:58:50.123Z,22.17
2018-04-16T17:01:18.698Z,23.20
2018-04-16T17:03:47.064Z,23.07
2018-04-16T17:06:14.694Z,21.83
2018-04-16T17:08:42.292Z,22.87
2018-04-16T17:11:10.655Z,22.53
2018-04-16T17:13:38.286Z,20.20
2018-04-16T17:16:05.885Z,16.40
2018-04-16T17:18:33.508Z,22.80
2018-04-16T17:21:01.108Z,17.53
2018-04-16T17:23:28.731Z,24.27
2018-04-16T17:25:56.330Z,21.87
2018-04-16T17:28:23.953Z,19.77
2018-04-16T17:30:51.551Z,16.20
2018-04-16T17:33:19.176Z,11.53
2018-04-16T17:35:46.802Z,17.00
2018-04-16T17:38:15.199Z,21.27
2018-04-16T17:40:42.799Z,22.63
2018-04-16T17:43:10.420Z,22.60
2018-04-16T17:45:38.028Z,21.13
2018-04-16T17:48:05.658Z,21.87
2018-04-16T17:50:33.261Z,21.03
2018-04-16T17:53:01.638Z,21.17
2018-04-16T17:55:29.263Z,17.07
2018-04-16T17:57:56.863Z,17.70
2018-04-16T18:00:25.271Z,22.40
2018-04-16T18:02:52.867Z,24.57
2018-04-16T18:05:20.499Z,16.83
2018-04-16T18:07:48.094Z,24.37
2018-04-16T18:10:15.718Z,21.20
2018-04-16T18:12:43.323Z,24.53
2018-04-16T18:15:10.948Z,14.97
2018-04-16T18:17:38.543Z,15.27
2018-04-16T18:20:06.184Z,22.67
2018-04-16T18:22:33.856Z,15.47
2018-04-16T18:25:01.482Z,15.20
2018-04-16T18:27:29.079Z,21.27
2018-04-16T18:29:56.707Z,21.37
2018-04-16T18:32:24.303Z,17.00
2018-04-16T18:34:51.923Z,18.83
2018-04-16T18:37:19.528Z,19.43
2018-04-16T18:39:47.150Z,16.73
2018-04-16T18:42:14.851Z,21.47
2018-04-16T18:44:42.471Z,17.03
2018-04-16T18:47:10.071Z,13.80
2018-04-16T18:49:37.691Z,14.67
2018-04-16T18:52:05.289Z,15.47
2018-04-16T18:54:32.904Z,19.33
2018-04-16T18:57:01.265Z,15.20
2018-04-16T18:59:28.894Z,20.40
2018-04-16T19:01:56.560Z,19.80
2018-04-16T19:04:24.194Z,20.40
2018-04-16T19:06:51.811Z,13.70
2018-04-16T19:09:20.191Z,16.17
2018-04-16T19:11:47.917Z,15.83
2018-04-16T19:14:15.518Z,17.70
2018-04-16T19:16:43.147Z,19.30
2018-04-16T19:19:10.746Z,16.00
2018-04-16T19:21:44.166Z,19.67
2018-04-16T19:24:11.787Z,15.87
2018-04-16T19:26:39.421Z,18.33
2018-04-16T19:29:07.014Z,16.10
2018-04-16T19:31:34.640Z,17.53
2018-04-16T19:34:07.927Z,13.30
2018-04-16T19:36:35.546Z,12.10
2018-04-16T19:39:03.918Z,14.40
2018-04-16T19:41:38.031Z,16.60
2018-04-16T19:44:06.392Z,14.20
2018-04-16T19:46:34.034Z,11.10
2018-04-16T19:49:07.463Z,10.97
2018-04-16T19:51:35.865Z,13.20
2018-04-16T19:54:04.227Z,11.70
2018-04-16T19:56:38.332Z,14.87
2018-04-16T19:59:05.934Z,12.83
2018-04-16T20:01:33.542Z,13.03
2018-04-16T20:04:01.166Z,12.30
2018-04-16T20:06:29.357Z,11.87
2018-04-16T20:08:56.983Z,10.90
2018-04-16T20:11:24.577Z,9.23
2018-04-16T20:13:52.208Z,10.60
2018-04-16T20:16:19.799Z,9.93
2018-04-16T20:18:47.424Z,9.93
2018-04-16T20:21:15.016Z,9.57
2018-04-16T20:23:42.650Z,9.87
2018-04-16T20:26:11.008Z,8.80
2018-04-16T20:28:39.376Z,7.60
2018-04-16T20:31:07.774Z,9.30
2018-04-16T20:33:36.141Z,9.20
2018-04-16T20:36:04.538Z,7.93
2018-04-16T20:38:32.148Z,9.07
2018-04-16T20:40:59.763Z,9.50
2018-04-16T20:43:27.359Z,8.63
2018-04-16T20:45:54.983Z,7.60
2018-04-16T20:48:22.591Z,5.80
2018-04-16T20:50:50.740Z,8.50
2018-04-16T20:53:18.334Z,6.80
2018-04-16T20:55:46.260Z,7.70
2018-04-16T20:58:13.859Z,8.43
2018-04-16T21:00:41.482Z,6.90
2018-04-16T21:03:09.076Z,6.43
2018-04-16T21:05:36.734Z,10.30
2018-04-16T21:08:04.335Z,8.87
2018-04-16T21:10:32.722Z,9.10
2018-04-16T21:13:00.320Z,8.37
2018-04-16T21:15:27.911Z,6.50
2018-04-16T21:17:57.051Z,8.57
2018-04-16T21:20:24.651Z,7.23
2018-04-16T21:22:52.274Z,7.20
2018-04-16T21:25:19.871Z,5.70
2018-04-16T21:27:47.508Z,5.70
2018-04-16T21:30:15.111Z,5.43
2018-04-16T21:32:43.497Z,5.10
2018-04-16T21:35:12.597Z,5.50
2018-04-16T21:37:40.991Z,4.30
2018-04-16T21:40:09.574Z,4.20
2018-04-16T21:42:37.975Z,4.80
2018-04-16T21:45:05.567Z,3.60
2018-04-16T21:47:33.199Z,4.07
2018-04-16T21:50:00.786Z,3.63
2018-04-16T21:52:28.421Z,3.30
2018-04-16T21:54:56.006Z,3.43
2018-04-16T21:57:23.594Z,3.37
2018-04-16T21:59:51.995Z,2.97
2018-04-16T22:02:20.347Z,4.37
2018-04-16T22:04:48.202Z,3.63
2018-04-16T22:07:15.790Z,3.20
2018-04-16T22:09:44.186Z,3.63
2018-04-16T22:12:11.774Z,3.53
2018-04-16T22:14:39.358Z,3.23
2018-04-16T22:17:06.969Z,2.60
2018-04-16T22:19:34.564Z,2.70
2018-04-16T22:22:02.184Z,3.40
2018-04-16T22:24:30.539Z,3.53
2018-04-16T22:26:58.158Z,2.60
2018-04-16T22:29:25.754Z,2.90
2018-04-16T22:31:54.138Z,4.00
2018-04-16T22:34:21.774Z,2.37
2018-04-16T22:36:49.396Z,2.93
2018-04-16T22:39:16.999Z,3.00
2018-04-16T22:41:44.623Z,2.77
2018-04-16T22:44:12.209Z,2.70
2018-04-16T22:46:39.794Z,3.10
2018-04-16T22:49:07.430Z,3.03
2018-04-16T22:51:35.015Z,2.73
2018-04-16T22:54:02.611Z,2.80
2018-04-16T22:56:31.002Z,2.40
2018-04-16T22:58:58.596Z,2.77
2018-04-16T23:01:26.186Z,2.17
2018-04-16T23:03:54.579Z,2.50
2018-04-16T23:06:22.946Z,3.63
2018-04-16T23:08:50.537Z,2.90
2018-04-16T23:11:18.159Z,2.90
2018-04-16T23:13:45.755Z,2.90
2018-04-16T23:16:13.353Z,2.70
2018-04-16T23:18:40.976Z,2.97
2018-04-16T23:21:08.570Z,2.57
2018-04-16T23:23:36.194Z,2.70
2018-04-16T23:26:03.822Z,3.00
2018-04-16T23:28:31.415Z,2.83
2018-04-16T23:30:59.803Z,2.50
2018-04-16T23:33:27.398Z,2.60
2018-04-16T23:35:55.018Z,2.57
2018-04-16T23:38:22.612Z,3.27
2018-04-16T23:40:50.202Z,2.50
2018-04-16T23:43:17.865Z,2.60
2018-04-16T23:45:45.454Z,3.50
2018-04-16T23:48:13.809Z,3.03
2018-04-16T23:50:41.438Z,2.27
2018-04-16T23:53:09.023Z,3.50
2018-04-16T23:55:36.609Z,3.03
2018-04-16T23:58:05.003Z,3.53
